createdAt,value
2018-10-09T00:01:48.209Z,52.50
2018-10-09T00:04:14.897Z,52.40
2018-10-09T00:06:41.328Z,52.40
2018-10-09T00:09:08.703Z,52.30
2018-10-09T00:11:35.986Z,52.30
2018-10-09T00:14:02.634Z,52.50
2018-10-09T00:16:29.026Z,52.50
2018-10-09T00:18:55.554Z,52.60
2018-10-09T00:21:22.299Z,52.60
2018-10-09T00:23:48.853Z,52.50
2018-10-09T00:26:15.753Z,53.20
2018-10-09T00:28:43.156Z,52.60
2018-10-09T00:31:09.570Z,52.50
2018-10-09T00:33:36.947Z,52.60
2018-10-09T00:36:03.384Z,52.50
2018-10-09T00:38:30.070Z,52.60
2018-10-09T00:40:57.439Z,52.50
2018-10-09T00:43:24.227Z,52.50
2018-10-09T00:45:50.638Z,52.50
2018-10-09T00:48:17.093Z,52.40
2018-10-09T00:50:44.506Z,52.40
2018-10-09T00:53:11.016Z,52.30
2018-10-09T00:55:37.724Z,52.30
2018-10-09T00:58:04.176Z,52.30
2018-10-09T01:00:30.619Z,52.20
2018-10-09T01:02:57.649Z,52.20
2018-10-09T01:05:24.064Z,52.30
2018-10-09T01:07:50.515Z,52.20
2018-10-09T01:10:16.987Z,52.30
2018-10-09T01:12:43.416Z,52.40
2018-10-09T01:15:09.873Z,52.40
2018-10-09T01:17:36.280Z,53.00
2018-10-09T01:20:02.731Z,53.10
2018-10-09T01:22:29.150Z,52.40
2018-10-09T01:24:56.199Z,52.40
2018-10-09T01:27:22.624Z,52.50
2018-10-09T01:29:49.089Z,52.50
2018-10-09T01:32:15.571Z,52.50
2018-10-09T01:34:42.109Z,52.50
2018-10-09T01:37:08.674Z,52.50
2018-10-09T01:39:35.108Z,52.40
2018-10-09T01:42:01.575Z,52.40
2018-10-09T01:44:27.963Z,52.40
2018-10-09T01:46:54.389Z,52.30
2018-10-09T01:49:21.054Z,52.30
2018-10-09T01:51:47.532Z,52.30
2018-10-09T01:54:14.498Z,52.30
2018-10-09T01:56:41.357Z,52.80
2018-10-09T01:59:07.834Z,52.20
2018-10-09T02:01:34.304Z,52.70
2018-10-09T02:04:00.815Z,52.10
2018-10-09T02:06:27.353Z,52.20
2018-10-09T02:08:54.434Z,52.10
2018-10-09T02:11:20.896Z,52.20
2018-10-09T02:13:47.347Z,52.20
2018-10-09T02:16:13.841Z,52.20
2018-10-09T02:18:40.605Z,52.20
2018-10-09T02:21:07.898Z,52.20
2018-10-09T02:23:34.413Z,52.20
2018-10-09T02:26:00.910Z,52.30
2018-10-09T02:28:28.140Z,52.80
2018-10-09T02:30:54.718Z,52.30
2018-10-09T02:33:21.937Z,52.30
2018-10-09T02:35:48.348Z,52.30
2018-10-09T02:38:14.859Z,52.30
2018-10-09T02:40:41.465Z,52.20
2018-10-09T02:43:08.133Z,52.20
2018-10-09T02:45:34.648Z,52.10
2018-10-09T02:48:01.223Z,52.80
2018-10-09T02:50:27.669Z,52.10
2018-10-09T02:52:54.122Z,52.10
2018-10-09T02:55:20.562Z,52.10
2018-10-09T02:57:47.543Z,52.20
2018-10-09T03:00:14.358Z,52.20
2018-10-09T03:02:41.036Z,52.20
2018-10-09T04:05:36.758Z,51.80
2018-10-09T04:13:24.049Z,51.90
2018-10-09T04:15:54.063Z,51.90
2018-10-09T04:18:23.157Z,51.80
2018-10-09T04:34:47.672Z,51.90
2018-10-09T05:59:47.981Z,52.30
2018-10-09T06:05:01.567Z,52.30
2018-10-09T06:10:13.882Z,52.40
2018-10-09T06:12:40.368Z,52.40
2018-10-09T06:20:30.229Z,52.60
2018-10-09T06:25:36.442Z,52.60
2018-10-09T07:22:16.737Z,52.60
2018-10-09T07:24:43.882Z,52.40
2018-10-09T07:27:10.276Z,52.30
2018-10-09T07:46:05.644Z,52.20
2018-10-09T07:48:32.319Z,52.30
2018-10-09T07:50:59.175Z,52.30
2018-10-09T07:53:25.634Z,52.30
2018-10-09T07:55:52.031Z,52.20
2018-10-09T07:58:18.927Z,52.30
2018-10-09T08:00:45.415Z,52.30
2018-10-09T08:03:12.642Z,52.20
2018-10-09T08:05:39.078Z,52.20
2018-10-09T08:08:05.526Z,52.10
2018-10-09T08:10:32.041Z,52.10
2018-10-09T08:23:34.452Z,52.00
2018-10-09T08:26:00.920Z,52.20
2018-10-09T08:28:27.693Z,52.00
2018-10-09T08:30:54.135Z,52.00
2018-10-09T08:33:20.569Z,52.10
2018-10-09T08:35:47.510Z,52.00
2018-10-09T08:38:14.274Z,52.00
2018-10-09T08:40:40.683Z,52.00
2018-10-09T08:43:07.104Z,51.90
2018-10-09T08:51:04.932Z,51.70
2018-10-09T09:03:56.596Z,51.50
2018-10-09T09:06:23.008Z,51.40
2018-10-09T09:08:49.448Z,51.40
2018-10-09T09:11:15.915Z,51.50
2018-10-09T09:13:42.380Z,51.40
2018-10-09T09:16:08.870Z,51.00
2018-10-09T09:18:35.309Z,51.40
2018-10-09T09:21:04.474Z,51.30
2018-10-09T09:23:30.772Z,51.30
2018-10-09T09:25:57.513Z,51.40
2018-10-09T09:28:23.974Z,51.30
2018-10-09T09:30:50.389Z,51.30
2018-10-09T09:33:18.289Z,51.20
2018-10-09T09:38:31.359Z,51.00
2018-10-09T09:40:59.518Z,51.00
2018-10-09T09:43:26.504Z,50.90
2018-10-09T09:45:54.066Z,51.00
2018-10-09T09:48:22.313Z,51.00
2018-10-09T09:50:50.060Z,51.00
2018-10-09T09:53:17.308Z,51.00
2018-10-09T09:55:43.946Z,51.00
2018-10-09T09:58:10.609Z,51.00
2018-10-09T10:00:42.515Z,51.00
2018-10-09T10:03:09.008Z,51.00
2018-10-09T10:05:35.858Z,51.00
2018-10-09T10:08:02.284Z,51.00
2018-10-09T10:10:29.731Z,51.00
2018-10-09T10:12:56.975Z,51.00
2018-10-09T10:15:25.016Z,51.00
2018-10-09T11:14:31.463Z,50.90
2018-10-09T11:17:00.889Z,51.00
2018-10-09T11:22:03.251Z,50.90
2018-10-09T11:24:32.443Z,51.00
2018-10-09T11:26:58.911Z,51.00
2018-10-09T11:29:25.762Z,50.90
2018-10-09T11:34:38.918Z,51.20
2018-10-09T11:39:48.383Z,51.10
2018-10-09T11:47:43.843Z,51.70
2018-10-09T11:55:39.962Z,51.10
2018-10-09T11:58:06.486Z,50.90
2018-10-09T12:00:35.298Z,50.40
2018-10-09T12:03:01.741Z,50.90
2018-10-09T12:05:29.980Z,50.90
2018-10-09T12:07:56.387Z,50.90
2018-10-09T12:10:25.981Z,50.90
2018-10-09T12:12:53.654Z,50.90
2018-10-09T12:15:21.728Z,51.00
2018-10-09T12:17:51.257Z,50.90
2018-10-09T12:20:18.202Z,51.00
2018-10-09T12:22:48.713Z,51.00
2018-10-09T12:25:16.868Z,50.90
2018-10-09T12:27:43.622Z,50.90
2018-10-09T12:30:10.677Z,51.00
2018-10-09T12:32:40.841Z,50.90
2018-10-09T12:35:09.876Z,50.90
2018-10-09T12:37:37.188Z,51.00
2018-10-09T12:40:04.323Z,51.00
2018-10-09T12:42:34.931Z,50.90
2018-10-09T12:45:06.308Z,50.90
2018-10-09T12:47:33.882Z,50.90
2018-10-09T12:50:01.364Z,50.90
2018-10-09T12:52:28.608Z,51.50
2018-10-09T12:55:01.178Z,50.90
2018-10-09T12:57:28.626Z,50.90
2018-10-09T13:30:14.138Z,51.30
2018-10-09T13:32:40.589Z,51.20
2018-10-09T13:35:07.009Z,51.20
2018-10-09T13:37:33.426Z,51.20
2018-10-09T13:39:59.846Z,51.20
2018-10-09T13:42:28.669Z,50.70
2018-10-09T13:44:55.245Z,51.20
2018-10-09T13:47:21.730Z,51.20
2018-10-09T13:49:48.136Z,51.10
2018-10-09T13:52:14.561Z,51.10
2018-10-09T13:54:44.977Z,50.80
2018-10-09T13:57:12.168Z,50.80
2018-10-09T13:59:38.929Z,51.50
2018-10-09T14:02:07.316Z,50.80
2018-10-09T14:04:34.912Z,50.80
2018-10-09T14:07:01.354Z,50.80
2018-10-09T14:09:27.794Z,50.80
2018-10-09T14:11:54.236Z,50.80
2018-10-09T14:14:20.669Z,50.80
2018-10-09T14:16:47.073Z,50.90
2018-10-09T14:19:13.460Z,50.90
2018-10-09T14:21:39.877Z,50.90
2018-10-09T14:24:06.308Z,50.90
2018-10-09T14:26:33.516Z,51.20
2018-10-09T14:29:01.015Z,50.90
2018-10-09T14:31:29.214Z,50.90
2018-10-09T14:33:58.044Z,50.90
2018-10-09T14:36:24.500Z,51.00
2018-10-09T14:38:50.872Z,51.00
2018-10-09T14:41:18.227Z,51.10
2018-10-09T14:43:45.690Z,51.00
2018-10-09T14:46:16.585Z,51.10
2018-10-09T14:48:46.826Z,51.20
2018-10-09T14:51:17.730Z,51.20
2018-10-09T14:53:45.480Z,51.10
2018-10-09T14:56:15.275Z,51.10
2018-10-09T14:58:42.459Z,51.30
2018-10-09T15:01:11.873Z,51.10
2018-10-09T15:03:41.139Z,51.30
2018-10-09T15:06:10.902Z,51.40
2018-10-09T15:08:41.554Z,51.40
2018-10-09T15:11:09.302Z,51.40
2018-10-09T15:13:36.084Z,51.40
2018-10-09T15:16:05.096Z,51.40
2018-10-09T15:18:32.382Z,51.30
2018-10-09T15:29:13.994Z,51.30
2018-10-09T15:31:40.754Z,51.40
2018-10-09T15:34:08.824Z,51.40
2018-10-09T15:47:32.844Z,51.50
2018-10-09T15:50:01.006Z,51.50
2018-10-09T15:52:27.920Z,51.50
2018-10-09T15:54:54.402Z,51.50
2018-10-09T15:57:20.824Z,51.50
2018-10-09T15:59:47.274Z,51.60
2018-10-09T16:02:13.702Z,52.20
2018-10-09T16:04:40.970Z,51.60
2018-10-09T16:09:54.013Z,51.60
2018-10-09T16:12:20.404Z,51.60
2018-10-09T16:14:47.912Z,51.60
2018-10-09T16:17:15.466Z,51.60
2018-10-09T16:19:41.856Z,51.70
2018-10-09T16:22:10.382Z,51.70
2018-10-09T16:24:37.901Z,51.70
2018-10-09T16:27:04.323Z,51.70
2018-10-09T16:29:31.507Z,51.70
2018-10-09T16:34:43.313Z,51.70
2018-10-09T16:37:09.743Z,51.90
2018-10-09T16:39:36.179Z,52.10
2018-10-09T16:42:02.612Z,52.20
2018-10-09T16:44:29.109Z,52.20
2018-10-09T16:46:56.190Z,52.40
2018-10-09T16:49:22.955Z,52.40
2018-10-09T16:51:50.618Z,52.60
2018-10-09T16:54:17.064Z,53.20
2018-10-09T16:56:43.510Z,53.00
2018-10-09T16:59:10.948Z,52.90
2018-10-09T17:01:39.508Z,52.90
2018-10-09T17:04:06.270Z,52.80
2018-10-09T17:06:34.056Z,52.80
2018-10-09T17:09:00.497Z,52.80
2018-10-09T17:11:28.133Z,52.80
2018-10-09T17:13:54.555Z,53.10
2018-10-09T17:16:20.968Z,54.80
2018-10-09T17:18:47.763Z,53.90
2018-10-09T17:21:14.614Z,53.80
2018-10-09T17:23:41.919Z,54.90
2018-10-09T17:26:10.500Z,55.00
2018-10-09T17:28:38.511Z,55.20
2018-10-09T17:31:11.036Z,54.70
2018-10-09T17:33:39.755Z,54.40
2018-10-09T17:36:06.510Z,54.30
2018-10-09T17:38:32.976Z,54.20
2018-10-09T17:41:00.350Z,54.00
2018-10-09T17:43:27.010Z,54.00
2018-10-09T17:45:54.180Z,53.80
2018-10-09T17:48:21.592Z,53.80
2018-10-09T17:50:48.001Z,53.80
2018-10-09T17:53:15.343Z,53.70
2018-10-09T17:55:41.870Z,53.60
2018-10-09T17:58:09.287Z,53.40
2018-10-09T18:00:36.683Z,53.50
2018-10-09T18:03:04.438Z,53.50
2018-10-09T18:05:31.981Z,53.50
2018-10-09T18:07:58.413Z,53.50
2018-10-09T18:10:24.916Z,53.40
2018-10-09T18:12:51.384Z,53.40
2018-10-09T18:15:22.153Z,53.40
2018-10-09T18:17:50.817Z,53.40
2018-10-09T18:20:21.017Z,53.50
2018-10-09T18:22:48.544Z,53.50
2018-10-09T18:25:15.935Z,53.40
2018-10-09T18:27:43.012Z,54.00
2018-10-09T18:30:14.662Z,53.50
2018-10-09T18:32:41.388Z,53.50
2018-10-09T18:35:08.881Z,53.50
2018-10-09T18:37:35.548Z,53.40
2018-10-09T18:40:02.097Z,53.50
2018-10-09T18:42:28.688Z,53.50
2018-10-09T18:45:02.887Z,53.50
2018-10-09T18:47:35.366Z,53.40
2018-10-09T18:50:05.712Z,53.40
2018-10-09T18:52:34.260Z,53.40
2018-10-09T18:55:01.700Z,53.40
2018-10-09T18:57:30.508Z,53.40
2018-10-09T18:59:58.050Z,53.40
2018-10-09T19:02:26.416Z,53.40
2018-10-09T19:04:54.842Z,53.30
2018-10-09T19:07:23.155Z,53.30
2018-10-09T19:09:51.751Z,53.20
2018-10-09T19:12:19.946Z,53.10
2018-10-09T19:14:46.374Z,53.10
2018-10-09T19:17:15.960Z,53.40
2018-10-09T19:19:44.199Z,53.10
2018-10-09T19:22:10.812Z,53.10
2018-10-09T19:24:49.173Z,53.10
2018-10-09T19:27:18.470Z,53.10
2018-10-09T19:29:46.164Z,53.10
2018-10-09T19:32:19.073Z,53.00
2018-10-09T19:34:47.614Z,53.10
2018-10-09T19:37:15.596Z,53.10
2018-10-09T19:39:44.258Z,53.00
2018-10-09T19:42:12.167Z,53.00
2018-10-09T19:44:38.609Z,53.00
2018-10-09T19:47:06.197Z,53.00
2018-10-09T19:52:20.390Z,52.90
2018-10-09T19:54:51.242Z,52.80
2018-10-09T19:57:17.756Z,52.30
2018-10-09T19:59:45.311Z,52.80
2018-10-09T20:02:12.548Z,52.90
2018-10-09T20:04:42.071Z,52.80
2018-10-09T20:07:11.444Z,52.70
2018-10-09T20:09:39.099Z,52.80
2018-10-09T20:12:06.614Z,52.80
2018-10-09T20:14:34.699Z,52.90
2018-10-09T20:17:01.771Z,52.80
2018-10-09T20:19:30.102Z,52.90
2018-10-09T20:21:57.681Z,53.50
2018-10-09T20:24:26.267Z,52.90
2018-10-09T20:26:52.772Z,52.80
2018-10-09T20:29:20.956Z,52.80
2018-10-09T20:31:48.028Z,52.80
2018-10-09T20:34:18.823Z,52.80
2018-10-09T20:36:46.839Z,52.80
2018-10-09T20:39:15.893Z,52.80
2018-10-09T20:41:43.217Z,52.80
2018-10-09T20:44:09.677Z,52.90
2018-10-09T20:46:38.339Z,52.90
2018-10-09T20:49:05.710Z,52.90
2018-10-09T20:51:32.215Z,52.90
2018-10-09T20:53:58.955Z,52.90
2018-10-09T20:56:29.218Z,52.80
2018-10-09T20:58:55.949Z,52.90
2018-10-09T21:01:25.074Z,52.90
2018-10-09T21:03:52.338Z,53.40
2018-10-09T21:06:24.551Z,52.90
2018-10-09T21:08:51.852Z,52.80
2018-10-09T21:13:56.040Z,52.80
2018-10-09T21:16:23.147Z,52.90
2018-10-09T21:18:50.935Z,52.90
2018-10-09T21:21:18.823Z,52.90
2018-10-09T21:23:46.821Z,52.80
2018-10-09T21:26:15.617Z,52.70
2018-10-09T21:28:42.951Z,53.30
2018-10-09T21:31:11.295Z,52.70
2018-10-09T21:33:40.744Z,52.70
2018-10-09T21:36:10.662Z,52.70
2018-10-09T21:38:39.621Z,52.70
2018-10-09T21:41:07.665Z,52.80
2018-10-09T21:43:35.962Z,52.80
2018-10-09T21:46:04.530Z,52.80
2018-10-09T21:48:32.001Z,52.70
2018-10-09T21:50:59.859Z,52.80
2018-10-09T21:53:30.697Z,52.80
2018-10-09T21:55:57.226Z,52.70
2018-10-09T21:58:25.336Z,52.70
2018-10-09T22:00:59.442Z,52.70
2018-10-09T22:03:30.987Z,52.80
2018-10-09T22:06:01.579Z,52.70
2018-10-09T22:08:31.515Z,52.80
2018-10-09T22:11:00.267Z,53.30
2018-10-09T22:16:00.128Z,53.40
2018-10-09T22:18:29.735Z,52.60
2018-10-09T22:20:57.337Z,52.60
2018-10-09T22:23:26.015Z,52.70
2018-10-09T22:25:56.944Z,52.60
2018-10-09T22:28:25.270Z,52.70
2018-10-09T22:30:52.049Z,52.70
2018-10-09T22:33:21.038Z,52.60
2018-10-09T22:35:50.913Z,52.60
2018-10-09T22:38:21.280Z,52.60
2018-10-09T22:40:49.454Z,52.60
2018-10-09T22:45:53.112Z,52.60
2018-10-09T22:48:22.559Z,52.60
2018-10-09T22:50:53.686Z,52.60
2018-10-09T22:53:27.802Z,52.60
2018-10-09T22:55:56.046Z,52.70
2018-10-09T23:01:06.933Z,52.70
2018-10-09T23:06:09.228Z,52.60
2018-10-09T23:08:39.237Z,52.60
2018-10-09T23:11:10.976Z,52.60
2018-10-09T23:13:38.331Z,52.60
2018-10-09T23:16:06.811Z,52.60
2018-10-09T23:18:34.268Z,52.60
2018-10-09T23:21:01.856Z,52.60
2018-10-09T23:23:33.891Z,52.60
2018-10-09T23:26:01.143Z,52.50
2018-10-09T23:28:27.564Z,52.60
2018-10-09T23:30:54.042Z,52.60
2018-10-09T23:33:20.493Z,52.60
2018-10-09T23:35:46.946Z,52.60
2018-10-09T23:38:13.397Z,52.60
2018-10-09T23:40:39.855Z,52.60
2018-10-09T23:43:06.374Z,52.50
2018-10-09T23:45:32.941Z,52.50
2018-10-09T23:48:06.862Z,52.50
2018-10-09T23:50:33.282Z,52.50
2018-10-09T23:53:00.082Z,52.60
2018-10-09T23:55:26.538Z,52.50
2018-10-09T23:57:52.975Z,52.50
